Time;durP1;ratioP1;P1;durP2;ratioP2;P2;SDS_P1;SDS_P2;PMS_P1;PMS_P2;Temp;Humidity;BMP_temperature;BMP_pressure;BME280_temperature;BME280_humidity;BME280_pressure;Samples;Min_cycle;Max_cycle;Signal;HPM_P1;HPM_P2
2022/10/29 05:06:13;;;;;;;17.90;8.80;;;;;;;13.08;100.00;102015.53;5036969;28;20049;-74
2022/10/29 05:08:38;;;;;;;16.83;8.82;;;;;;;13.10;100.00;102003.91;5039990;28;20472;-74
2022/10/29 05:11:05;;;;;;;18.45;8.77;;;;;;;13.13;100.00;101997.56;5038193;28;20049;-74
2022/10/29 05:13:31;;;;;;;15.30;8.98;;;;;;;13.07;100.00;101994.22;5120954;22;20548;-74
2022/10/29 05:15:56;;;;;;;20.02;9.65;;;;;;;13.13;100.00;101983.50;5085944;28;20549;-74
2022/10/29 05:18:22;;;;;;;18.67;9.32;;;;;;;13.14;100.00;101980.31;5090843;28;20111;-74
2022/10/29 05:20:47;;;;;;;16.10;9.45;;;;;;;13.12;100.00;101988.31;5090699;28;20031;-74
2022/10/29 05:23:13;;;;;;;17.90;9.68;;;;;;;13.10;100.00;101990.69;5088748;28;20063;-74
2022/10/29 05:25:40;;;;;;;19.95;11.10;;;;;;;13.10;100.00;101979.44;5071038;28;20031;-74
2022/10/29 05:28:06;;;;;;;18.23;9.75;;;;;;;13.18;100.00;101969.97;5089562;28;20059;-74
2022/10/29 05:30:33;;;;;;;21.67;9.80;;;;;;;13.17;100.00;101968.31;5088745;28;20534;-74
2022/10/29 05:32:58;;;;;;;18.23;9.30;;;;;;;13.20;100.00;101975.22;5090282;28;20111;-74
2022/10/29 05:35:24;;;;;;;19.35;10.70;;;;;;;13.11;100.00;101974.63;5094963;28;20035;-74
2022/10/29 05:37:54;;;;;;;20.48;10.02;;;;;;;13.09;100.00;101977.81;5095646;28;20032;-74
2022/10/29 05:40:20;;;;;;;16.52;8.90;;;;;;;13.10;100.00;101979.44;5072109;28;20035;-74
2022/10/29 05:42:46;;;;;;;16.02;9.05;;;;;;;13.15;100.00;101976.31;5090305;28;20050;-75
2022/10/29 05:45:11;;;;;;;16.77;10.50;;;;;;;13.12;100.00;101965.00;5089227;28;20754;-74
2022/10/29 05:47:37;;;;;;;19.75;9.73;;;;;;;13.12;100.00;101965.81;5089266;28;20042;-74
2022/10/29 05:50:03;;;;;;;21.77;11.00;;;;;;;13.12;100.00;101954.56;5085859;28;20035;-74
2022/10/29 05:52:28;;;;;;;19.50;11.25;;;;;;;13.02;100.00;101943.91;5069845;28;20069;-74
2022/10/29 05:54:53;;;;;;;18.55;9.90;;;;;;;12.97;100.00;101947.03;5069757;28;20069;-74
2022/10/29 05:57:19;;;;;;;18.98;9.93;;;;;;;13.04;100.00;101946.38;5089613;28;20517;-75
2022/10/29 05:59:45;;;;;;;15.15;9.18;;;;;;;12.88;100.00;101944.44;5088354;28;20037;-75
2022/10/29 06:02:10;;;;;;;18.33;10.50;;;;;;;12.92;100.00;101956.56;5080843;28;20024;-75
2022/10/29 06:04:35;;;;;;;17.65;9.52;;;;;;;13.02;100.00;101941.09;5069271;28;20025;-74
2022/10/29 06:07:01;;;;;;;17.98;10.02;;;;;;;12.98;100.00;101943.03;5070963;28;20051;-74
2022/10/29 06:09:26;;;;;;;16.05;9.45;;;;;;;12.98;100.00;101948.66;5074351;28;20112;-74
2022/10/29 06:11:53;;;;;;;17.73;10.52;;;;;;;12.98;100.00;101945.84;5074360;28;20117;-74
2022/10/29 06:14:19;;;;;;;18.83;9.80;;;;;;;13.08;100.00;101936.81;5052435;28;20128;-74
2022/10/29 06:16:44;;;;;;;15.63;9.30;;;;;;;13.08;100.00;101931.19;5067479;28;20506;-74
2022/10/29 06:19:09;;;;;;;17.38;9.95;;;;;;;13.10;100.00;101934.47;5053200;28;20038;-74
2022/10/29 06:21:35;;;;;;;17.67;10.57;;;;;;;13.11;100.00;101930.47;5059004;28;20584;-74
2022/10/29 06:24:00;;;;;;;17.40;9.45;;;;;;;13.21;100.00;101941.09;5050860;28;20055;-73
2022/10/29 06:26:26;;;;;;;18.10;9.68;;;;;;;13.22;100.00;101941.94;5051228;28;20052;-74
2022/10/29 06:28:51;;;;;;;18.50;9.98;;;;;;;13.21;100.00;101940.28;5056505;28;20031;-75
2022/10/29 06:31:16;;;;;;;15.82;10.15;;;;;;;13.23;100.00;101938.72;5083412;28;20052;-74
2022/10/29 06:33:42;;;;;;;15.77;9.18;;;;;;;13.23;100.00;101947.16;5079842;28;20032;-74
2022/10/29 06:36:07;;;;;;;18.92;10.02;;;;;;;13.19;100.00;101937.03;5082522;28;20027;-74
2022/10/29 06:38:32;;;;;;;16.83;9.55;;;;;;;13.22;100.00;101939.94;5082397;28;20056;-74
2022/10/29 06:40:58;;;;;;;19.15;10.23;;;;;;;13.16;100.00;101944.22;5062873;28;20030;-74
2022/10/29 06:43:23;;;;;;;16.52;11.00;;;;;;;13.25;100.00;101951.63;5083170;28;20111;-74
2022/10/29 06:45:49;;;;;;;17.25;9.68;;;;;;;13.28;100.00;101950.88;5062765;28;20245;-74
2022/10/29 06:48:14;;;;;;;15.90;9.65;;;;;;;13.29;100.00;101958.97;5080626;28;20043;-74
2022/10/29 06:50:40;;;;;;;20.55;10.52;;;;;;;13.29;100.00;101947.72;5085570;28;20032;-74
2022/10/29 06:53:08;;;;;;;17.20;9.77;;;;;;;13.26;100.00;101948.44;5083925;28;20032;-74
2022/10/29 06:55:34;;;;;;;19.95;10.82;;;;;;;13.22;100.00;101942.75;5082321;28;20036;-74
2022/10/29 06:58:02;;;;;;;20.55;9.45;;;;;;;13.27;100.00;101943.63;5077924;28;20025;-74
2022/10/29 07:00:28;;;;;;;21.30;11.30;;;;;;;13.29;100.00;101946.91;5061341;28;20027;-74
2022/10/29 07:02:54;;;;;;;14.75;9.43;;;;;;;13.27;100.00;101950.06;5082187;28;20550;-74
2022/10/29 07:05:20;;;;;;;15.73;9.38;;;;;;;13.31;100.00;101956.59;5082202;28;20028;-75
2022/10/29 07:07:46;;;;;;;17.70;11.10;;;;;;;13.32;100.00;101951.78;5083753;28;20154;-74
2022/10/29 07:10:11;;;;;;;17.63;10.75;;;;;;;13.31;100.00;101945.34;5059629;28;20556;-74
2022/10/29 07:12:44;;;;;;;24.30;12.43;;;;;;;13.31;100.00;101955.81;5081506;28;20043;-74
2022/10/29 07:15:10;;;;;;;19.58;11.20;;;;;;;13.32;100.00;101957.41;5072065;28;20487;-74
2022/10/29 07:17:36;;;;;;;20.85;11.75;;;;;;;13.27;100.00;101954.88;5053961;28;20544;-74
2022/10/29 07:20:03;;;;;;;20.55;11.52;;;;;;;13.35;100.00;101965.13;5080719;28;20028;-74
2022/10/29 07:22:28;;;;;;;21.73;11.23;;;;;;;13.33;100.00;101956.25;5076649;28;20508;-73
2022/10/29 07:24:54;;;;;;;19.50;12.30;;;;;;;13.31;100.00;101950.97;5081669;28;20028;-74
2022/10/29 07:27:19;;;;;;;19.23;9.55;;;;;;;13.35;100.00;101956.69;5062983;28;20024;-75
2022/10/29 07:29:44;;;;;;;22.85;13.70;;;;;;;13.40;100.00;101960.00;5072748;28;20115;-73
2022/10/29 07:32:10;;;;;;;27.38;13.77;;;;;;;13.34;100.00;101955.84;5063472;28;20162;-74
2022/10/29 07:34:35;;;;;;;21.67;12.23;;;;;;;13.34;100.00;101961.47;5084655;28;20035;-74
2022/10/29 07:37:00;;;;;;;19.52;12.15;;;;;;;13.39;100.00;101951.94;5065448;28;20070;-73
2022/10/29 07:39:26;;;;;;;28.48;17.02;;;;;;;13.21;100.00;101963.59;5080840;28;20020;-74
2022/10/29 07:41:51;;;;;;;21.88;12.93;;;;;;;13.22;100.00;101948.38;5080395;28;20542;-74
2022/10/29 07:44:17;;;;;;;27.58;15.55;;;;;;;13.33;100.00;101953.44;5078044;28;20063;-74
2022/10/29 07:46:42;;;;;;;23.27;14.05;;;;;;;13.27;100.00;101949.25;5058592;28;20077;-74
2022/10/29 07:49:07;;;;;;;35.55;17.05;;;;;;;13.31;100.00;101945.34;5086686;28;20024;-74
2022/10/29 07:51:33;;;;;;;33.40;18.65;;;;;;;13.28;100.00;101957.34;5086240;28;20043;-74
2022/10/29 07:53:59;;;;;;;32.55;16.33;;;;;;;13.09;100.00;101963.75;5061776;28;21015;-74
2022/10/29 07:56:24;;;;;;;30.55;17.77;;;;;;;13.10;100.00;101962.56;5086720;28;20023;-74
2022/10/29 07:58:49;;;;;;;39.10;19.83;;;;;;;13.04;100.00;101961.22;5073303;28;20067;-74
2022/10/29 08:01:15;;;;;;;44.55;19.45;;;;;;;12.99;100.00;101955.91;5083899;28;20070;-74
2022/10/29 08:03:40;;;;;;;32.08;16.85;;;;;;;13.09;100.00;101971.34;5080500;28;20675;-74
2022/10/29 08:06:05;;;;;;;32.72;19.30;;;;;;;13.12;100.00;101965.81;5065395;28;20024;-74
2022/10/29 08:08:33;;;;;;;27.85;14.93;;;;;;;13.16;100.00;101949.84;5082018;28;20111;-74
2022/10/29 08:11:03;;;;;;;33.88;18.65;;;;;;;13.18;100.00;101960.72;5065375;28;20027;-74
2022/10/29 08:13:29;;;;;;;32.95;18.55;;;;;;;13.20;100.00;101950.72;5082690;28;20052;-74
2022/10/29 08:15:54;;;;;;;38.78;18.83;;;;;;;13.28;100.00;101940.47;5081420;28;20067;-75
2022/10/29 08:18:20;;;;;;;38.50;18.55;;;;;;;13.29;100.00;101938.47;5082851;28;20035;-74
2022/10/29 08:20:45;;;;;;;37.40;19.05;;;;;;;13.30;100.00;101940.09;5079915;28;20032;-74
2022/10/29 08:23:14;;;;;;;33.55;18.80;;;;;;;13.34;100.00;101938.19;5064089;28;20035;-74
2022/10/29 08:25:41;;;;;;;40.67;19.77;;;;;;;13.38;100.00;101933.44;5080377;28;20055;-75
2022/10/29 08:28:09;;;;;;;40.15;21.20;;;;;;;13.37;100.00;101931.81;5081043;28;20024;-74
2022/10/29 08:30:35;;;;;;;40.20;19.80;;;;;;;13.38;100.00;101922.19;5079262;28;20028;-75
2022/10/29 08:33:00;;;;;;;32.22;15.60;;;;;;;13.40;100.00;101931.06;5078376;28;20032;-74
2022/10/29 08:35:27;;;;;;;43.78;20.60;;;;;;;13.49;100.00;101934.47;5082368;28;20051;-74
2022/10/29 08:37:52;;;;;;;43.28;20.98;;;;;;;13.55;100.00;101937.78;5067850;28;20119;-74
2022/10/29 08:40:27;;;;;;;43.50;21.80;;;;;;;13.55;100.00;101930.16;5088123;28;20019;-74
2022/10/29 08:43:31;;;;;;;43.38;21.13;;;;;;;13.59;100.00;101933.84;5086111;28;20024;-74
2022/10/29 08:45:56;;;;;;;41.47;21.30;;;;;;;13.63;100.00;101926.28;5079416;28;20035;-74
2022/10/29 08:48:32;;;;;;;44.75;21.85;;;;;;;13.69;100.00;101929.59;5068632;28;20036;-74
2022/10/29 08:51:05;;;;;;;50.20;22.85;;;;;;;13.74;100.00;101931.28;5084920;28;20424;-74
2022/10/29 08:53:37;;;;;;;49.30;23.48;;;;;;;13.81;100.00;101928.63;5080148;28;20036;-74
2022/10/29 08:56:10;;;;;;;40.00;19.88;;;;;;;13.92;100.00;101924.00;5086785;28;20074;-74
2022/10/29 08:59:14;;;;;;;49.42;22.92;;;;;;;14.06;100.00;101917.78;5082063;28;20034;-74
2022/10/29 09:01:41;;;;;;;44.83;23.13;;;;;;;14.16;100.00;101913.53;5084392;28;20570;-75
2022/10/29 09:04:31;;;;;;;45.65;24.52;;;;;;;14.19;100.00;101921.22;5082000;28;20040;-74
2022/10/29 09:07:28;;;;;;;41.45;23.27;;;;;;;14.34;100.00;101923.06;5079776;28;20024;-74
2022/10/29 09:10:22;;;;;;;48.53;23.23;;;;;;;14.45;100.00;101923.22;5089510;28;20402;-74
2022/10/29 09:12:54;;;;;;;46.05;23.90;;;;;;;14.51;100.00;101909.66;5082617;28;20054;-74
2022/10/29 09:15:40;;;;;;;58.25;23.80;;;;;;;14.63;100.00;101915.06;5080981;28;20036;-74
2022/10/29 09:18:37;;;;;;;51.00;23.77;;;;;;;14.74;100.00;101906.78;5067321;28;20117;-75
2022/10/29 09:21:03;;;;;;;47.55;24.05;;;;;;;14.80;100.00;101902.44;5070311;28;20020;-74
2022/10/29 09:24:07;;;;;;;51.75;22.10;;;;;;;14.89;100.00;101905.78;5067979;28;20506;-73
2022/10/29 09:26:51;;;;;;;49.83;23.05;;;;;;;14.95;100.00;101911.91;5079112;28;20510;-75
2022/10/29 09:29:33;;;;;;;54.20;24.70;;;;;;;14.94;100.00;101907.44;5075115;28;20031;-74
2022/10/29 09:32:04;;;;;;;45.47;23.65;;;;;;;14.95;100.00;101898.59;5071598;28;20071;-73
2022/10/29 09:34:37;;;;;;;45.28;23.10;;;;;;;14.97;100.00;101887.75;5072096;28;20093;-74
2022/10/29 09:37:13;;;;;;;44.72;22.80;;;;;;;15.06;100.00;101884.63;5074609;28;20467;-73
2022/10/29 09:39:40;;;;;;;43.72;23.25;;;;;;;15.13;100.00;101890.34;5057707;28;20051;-74
2022/10/29 09:42:37;;;;;;;48.30;23.23;;;;;;;15.20;100.00;101889.59;5072869;28;20035;-73
2022/10/29 09:45:09;;;;;;;45.55;23.50;;;;;;;15.23;100.00;101895.31;5061734;28;20032;-73
2022/10/29 09:48:04;;;;;;;44.17;23.48;;;;;;;15.29;100.00;101892.16;5075602;28;21039;-75
2022/10/29 09:50:44;;;;;;;44.33;23.00;;;;;;;15.41;100.00;101878.59;5073570;28;20029;-74
2022/10/29 09:53:09;;;;;;;40.08;22.55;;;;;;;15.43;100.00;101881.84;5072893;28;20094;-75
2022/10/29 09:55:42;;;;;;;40.83;21.30;;;;;;;15.46;100.00;101885.88;5056620;28;20511;-74
2022/10/29 09:58:23;;;;;;;49.17;26.02;;;;;;;15.52;100.00;101883.53;5068975;28;20025;-74
2022/10/29 10:00:50;;;;;;;52.55;23.27;;;;;;;15.60;100.00;101869.09;5074205;28;20028;-75
2022/10/29 10:03:34;;;;;;;48.25;22.63;;;;;;;15.70;100.00;101867.56;5060639;28;20028;-76
2022/10/29 10:05:59;;;;;;;41.78;21.20;;;;;;;15.76;100.00;101866.03;5084147;28;20490;-74
2022/10/29 10:08:24;;;;;;;44.28;22.90;;;;;;;15.95;100.00;101855.72;5090954;28;20039;-74
2022/10/29 10:11:01;;;;;;;44.05;22.75;;;;;;;16.04;100.00;101854.19;5081693;28;20455;-74
2022/10/29 10:13:34;;;;;;;44.10;21.95;;;;;;;16.01;100.00;101854.94;5078673;28;20063;-75
2022/10/29 10:16:03;;;;;;;39.60;19.55;;;;;;;16.13;100.00;101856.66;5086066;28;20505;-74
2022/10/29 10:18:31;;;;;;;44.47;21.75;;;;;;;16.16;100.00;101852.22;5078512;28;20483;-74
2022/10/29 10:21:06;;;;;;;40.58;20.73;;;;;;;16.15;100.00;101847.78;5061445;28;20034;-74
2022/10/29 10:23:51;;;;;;;43.08;22.33;;;;;;;16.15;100.00;101842.94;5077282;28;20149;-74
2022/10/29 10:26:41;;;;;;;49.22;20.50;;;;;;;16.20;100.00;101833.28;5080515;28;20032;-74
2022/10/29 10:29:17;;;;;;;39.92;22.42;;;;;;;16.20;100.00;101844.59;5080346;28;20529;-74
2022/10/29 10:31:44;;;;;;;40.17;19.88;;;;;;;16.22;100.00;101830.88;5078341;28;20020;-74
2022/10/29 10:34:19;;;;;;;48.50;21.58;;;;;;;16.37;100.00;101832.59;5076194;28;20487;-74
2022/10/29 10:36:49;;;;;;;38.45;21.25;;;;;;;16.44;100.00;101827.00;5078235;28;20412;-75
2022/10/29 10:39:25;;;;;;;39.30;17.20;;;;;;;16.40;100.00;101826.16;5090009;28;20054;-74
2022/10/29 10:41:51;;;;;;;46.95;22.55;;;;;;;16.48;100.00;101826.19;5067865;28;20024;-75
2022/10/29 10:44:19;;;;;;;35.45;19.20;;;;;;;16.54;100.00;101814.09;5065237;28;20039;-73
2022/10/29 10:46:46;;;;;;;37.72;20.83;;;;;;;16.68;100.00;101796.41;5079586;28;20036;-73
2022/10/29 10:49:15;;;;;;;35.03;19.55;;;;;;;16.67;100.00;101792.78;5082325;28;20055;-73
2022/10/29 10:51:51;;;;;;;35.28;18.02;;;;;;;16.69;100.00;101792.34;5079721;28;20036;-73
2022/10/29 10:54:37;;;;;;;39.42;21.08;;;;;;;16.74;100.00;101814.59;5080456;28;20594;-73
2022/10/29 10:57:18;;;;;;;36.58;19.83;;;;;;;16.70;100.00;101816.59;5080862;28;20020;-73
2022/10/29 11:00:22;;;;;;;45.58;20.35;;;;;;;16.69;100.00;101817.81;5062008;28;20081;-73
2022/10/29 11:03:03;;;;;;;36.00;20.05;;;;;;;16.86;100.00;101822.75;4982318;28;20037;-73
2022/10/29 11:05:34;;;;;;;43.03;19.50;;;;;;;16.80;100.00;101827.19;4979207;28;20393;-73
2022/10/29 11:08:18;;;;;;;37.70;19.48;;;;;;;16.82;100.00;101824.78;5040103;28;20044;-73
2022/10/29 11:10:52;;;;;;;37.22;19.20;;;;;;;16.89;100.00;101826.81;5080584;28;20074;-73
2022/10/29 11:13:23;;;;;;;35.20;18.77;;;;;;;16.86;100.00;101819.09;5081794;28;20525;-73
2022/10/29 11:16:07;;;;;;;34.00;19.05;;;;;;;16.91;100.00;101809.41;5081873;28;20032;-73
2022/10/29 11:18:46;;;;;;;43.05;18.20;;;;;;;17.01;100.00;101803.00;5081543;28;20027;-73
2022/10/29 11:21:36;;;;;;;32.85;18.33;;;;;;;17.02;100.00;101804.63;5078079;28;20055;-73
2022/10/29 11:24:19;;;;;;;37.88;17.90;;;;;;;16.99;100.00;101794.09;5053254;28;20049;-73
2022/10/29 11:27:02;;;;;;;42.55;19.17;;;;;;;16.98;100.00;101781.97;5058887;28;20866;-73
2022/10/29 11:29:46;;;;;;;38.08;18.52;;;;;;;17.15;100.00;101788.88;5080439;28;20416;-73
2022/10/29 11:32:21;;;;;;;40.80;19.52;;;;;;;17.20;100.00;101804.66;5075992;28;20039;-73
2022/10/29 11:34:55;;;;;;;38.30;18.25;;;;;;;17.17;100.00;101800.59;5065468;28;20036;-73
2022/10/29 11:37:37;;;;;;;30.00;17.52;;;;;;;17.22;100.00;101796.56;5083676;28;20391;-73
2022/10/29 11:40:11;;;;;;;39.08;20.45;;;;;;;17.23;100.00;101790.50;5080143;28;20052;-73
2022/10/29 11:42:38;;;;;;;35.40;17.33;;;;;;;17.33;100.00;101788.09;5079584;28;20039;-73
2022/10/29 11:45:04;;;;;;;39.28;18.67;;;;;;;17.31;100.00;101777.19;5090000;28;20020;-73
2022/10/29 11:47:44;;;;;;;39.60;18.38;;;;;;;17.36;100.00;101784.47;5079919;28;20027;-73
2022/10/29 11:50:25;;;;;;;38.85;17.90;;;;;;;17.35;100.00;101777.19;5075694;28;20032;-74
2022/10/29 11:53:19;;;;;;;39.88;17.60;;;;;;;17.47;100.00;101780.41;5078309;28;20154;-74
2022/10/29 11:56:15;;;;;;;38.67;18.45;;;;;;;17.45;100.00;101779.22;5069464;28;20048;-73
2022/10/29 11:59:04;;;;;;;31.73;17.00;;;;;;;17.38;100.00;101771.53;5068736;28;20036;-73
2022/10/29 12:01:41;;;;;;;40.42;18.48;;;;;;;17.40;100.00;101762.66;5071126;28;20512;-73
2022/10/29 12:04:26;;;;;;;35.72;18.42;;;;;;;17.42;100.00;101763.84;5059025;28;20126;-73
2022/10/29 12:06:54;;;;;;;37.13;17.75;;;;;;;17.41;100.00;101764.25;5077935;28;20458;-73
2022/10/29 12:10:01;;;;;;;36.28;18.15;;;;;;;17.55;100.00;101769.13;5083012;28;20548;-73
2022/10/29 12:12:42;;;;;;;38.75;17.27;;;;;;;17.63;100.00;101765.88;5069114;28;20044;-73
2022/10/29 12:15:22;;;;;;;39.95;16.90;;;;;;;17.71;100.00;101772.34;5072196;28;20055;-73
2022/10/29 12:18:08;;;;;;;31.33;17.38;;;;;;;17.83;100.00;101757.78;5074809;28;20046;-73
2022/10/29 12:20:49;;;;;;;35.72;17.17;;;;;;;18.04;100.00;101754.09;5073512;28;20475;-73
2022/10/29 12:23:39;;;;;;;35.05;17.33;;;;;;;18.27;100.00;101747.94;5060719;28;20056;-73
2022/10/29 12:26:22;;;;;;;34.92;15.98;;;;;;;18.33;100.00;101745.50;5074483;28;20036;-73
2022/10/29 12:29:10;;;;;;;27.38;15.75;;;;;;;18.29;100.00;101733.38;5073460;28;20532;-74
2022/10/29 12:31:49;;;;;;;31.35;14.98;;;;;;;18.39;100.00;101732.53;5076227;28;20044;-74
2022/10/29 12:34:24;;;;;;;35.63;15.23;;;;;;;18.33;100.00;101731.34;5072901;28;20486;-75
2022/10/29 12:37:05;;;;;;;33.28;15.15;;;;;;;18.29;100.00;101725.69;5055586;28;20561;-74
2022/10/29 12:39:39;;;;;;;31.17;14.60;;;;;;;18.36;100.00;101722.03;5058406;28;20111;-74
2022/10/29 12:42:32;;;;;;;28.85;15.38;;;;;;;18.39;100.00;101712.69;5075795;28;20491;-73
2022/10/29 12:45:16;;;;;;;23.17;14.38;;;;;;;18.39;100.00;101709.84;5067975;28;20051;-73
2022/10/29 12:48:17;;;;;;;25.02;14.63;;;;;;;18.35;100.00;101719.59;5060082;28;20051;-74
2022/10/29 12:50:57;;;;;;;27.75;13.48;;;;;;;18.36;100.00;101716.34;5070896;28;20089;-73
2022/10/29 12:53:30;;;;;;;33.90;13.88;;;;;;;18.30;100.00;101723.69;5060978;28;20163;-74
2022/10/29 12:55:57;;;;;;;24.80;12.43;;;;;;;18.36;100.00;101716.34;5073107;28;20145;-74
2022/10/29 12:58:41;;;;;;;28.40;13.77;;;;;;;18.27;100.00;101713.94;5080770;28;20024;-74
2022/10/29 13:01:27;;;;;;;30.98;13.43;;;;;;;18.28;100.00;101704.25;5085489;28;20059;-73
2022/10/29 13:03:53;;;;;;;32.60;14.32;;;;;;;18.35;100.00;101703.41;5075581;28;20361;-74
2022/10/29 13:06:44;;;;;;;29.42;13.85;;;;;;;18.26;100.00;101700.22;5077540;28;20509;-74
2022/10/29 13:09:33;;;;;;;27.80;13.50;;;;;;;18.30;100.00;101698.16;5075347;28;20527;-74
2022/10/29 13:12:05;;;;;;;28.40;13.23;;;;;;;18.36;100.00;101693.69;5071714;28;20552;-74
2022/10/29 13:14:42;;;;;;;25.15;13.25;;;;;;;18.53;100.00;101699.66;5055998;28;20117;-74
2022/10/29 13:17:33;;;;;;;25.40;12.60;;;;;;;18.64;100.00;101703.25;5072796;28;20047;-74
2022/10/29 13:20:18;;;;;;;33.50;13.55;;;;;;;18.77;100.00;101701.53;5075479;28;20406;-74
2022/10/29 13:22:46;;;;;;;23.33;12.27;;;;;;;18.75;99.17;101689.81;5076550;28;20935;-74
2022/10/29 13:25:34;;;;;;;29.02;12.75;;;;;;;18.82;99.12;101672.75;5073607;28;20060;-73
2022/10/29 13:28:20;;;;;;;23.08;11.82;;;;;;;18.81;98.67;101676.03;5072074;28;20483;-72
2022/10/29 13:30:50;;;;;;;29.67;12.73;;;;;;;18.87;98.99;101669.50;5071220;28;21607;-73
2022/10/29 13:33:25;;;;;;;25.23;12.52;;;;;;;18.88;98.49;101668.25;5065383;28;20051;-72
2022/10/29 13:35:54;;;;;;;24.80;10.73;;;;;;;18.97;98.44;101675.50;5077867;28;20059;-72
2022/10/29 13:38:40;;;;;;;27.88;11.90;;;;;;;18.85;98.43;101674.78;5073610;28;20078;-73
2022/10/29 13:41:12;;;;;;;26.67;11.68;;;;;;;18.84;99.39;101672.34;5066194;28;20521;-74
2022/10/29 13:43:41;;;;;;;32.03;11.68;;;;;;;18.72;99.85;101672.81;5059734;28;20027;-74
2022/10/29 13:46:12;;;;;;;24.85;11.20;;;;;;;18.72;99.95;101665.13;5070548;28;20032;-73
2022/10/29 13:48:39;;;;;;;26.15;12.38;;;;;;;18.84;98.97;101658.97;5072846;28;20096;-73
2022/10/29 13:51:15;;;;;;;30.33;12.55;;;;;;;18.92;98.85;101662.56;5071698;28;20032;-75
2022/10/29 13:53:53;;;;;;;21.77;12.07;;;;;;;18.95;98.55;101656.06;5072605;28;20070;-74
2022/10/29 13:56:33;;;;;;;22.80;12.57;;;;;;;18.88;98.58;101648.41;5075511;28;20031;-74
2022/10/29 13:59:01;;;;;;;20.40;10.23;;;;;;;18.93;98.80;101646.34;5077731;28;20020;-74
2022/10/29 14:01:31;;;;;;;25.55;10.00;;;;;;;18.95;99.12;101638.22;5057623;28;20368;-75
2022/10/29 14:04:22;;;;;;;21.75;10.55;;;;;;;18.98;98.82;101643.88;5074658;28;20425;-74
2022/10/29 14:06:50;;;;;;;24.45;11.27;;;;;;;18.93;99.37;101635.00;5078148;28;20497;-74
2022/10/29 14:09:23;;;;;;;26.10;10.57;;;;;;;18.93;99.05;101652.84;5080140;28;20123;-74
2022/10/29 14:11:56;;;;;;;26.45;9.88;;;;;;;18.87;99.25;101638.31;5059104;28;20071;-74
2022/10/29 14:14:52;;;;;;;26.42;9.77;;;;;;;18.89;98.92;101635.84;5077726;28;20048;-75
2022/10/29 14:17:18;;;;;;;27.85;10.38;;;;;;;18.93;98.28;101637.84;5078786;28;20024;-74
2022/10/29 14:19:48;;;;;;;21.02;9.77;;;;;;;19.03;97.36;101634.91;5056538;28;20042;-75
2022/10/29 14:22:32;;;;;;;26.70;10.55;;;;;;;19.19;96.72;101628.69;5062468;28;20530;-74
2022/10/29 14:25:20;;;;;;;26.10;10.15;;;;;;;19.22;95.04;101633.53;5082313;28;20074;-74
2022/10/29 14:27:45;;;;;;;24.02;8.50;;;;;;;19.22;94.86;101636.38;5083637;28;20086;-74
2022/10/29 14:30:18;;;;;;;17.25;8.65;;;;;;;19.25;95.11;101635.53;5083882;28;20031;-75
2022/10/29 14:32:45;;;;;;;;;;;;;;;19.20;95.47;101630.31;5075773;28;20059;-74
2022/10/29 14:35:14;;;;;;;24.95;9.40;;;;;;;19.05;96.19;101637.34;5058642;28;19919;-75
2022/10/29 14:37:41;;;;;;;28.90;9.52;;;;;;;19.01;96.64;101643.03;5082155;28;20463;-75
2022/10/29 14:40:20;;;;;;;23.45;8.90;;;;;;;19.04;95.95;101633.69;5080380;28;20059;-75
2022/10/29 14:42:52;;;;;;;20.52;9.52;;;;;;;18.95;96.59;101627.69;5082109;28;20036;-74
2022/10/29 14:45:22;;;;;;;19.75;8.75;;;;;;;18.93;97.42;101623.66;5079297;28;20356;-74
2022/10/29 14:47:54;;;;;;;23.73;8.68;;;;;;;18.74;98.46;101633.50;5074440;28;20034;-74
2022/10/29 14:50:23;;;;;;;23.03;8.47;;;;;;;18.71;97.75;101623.78;5057792;28;20383;-74
2022/10/29 14:52:53;;;;;;;21.05;9.15;;;;;;;18.66;98.30;101627.88;5067310;28;20329;-74
2022/10/29 14:55:24;;;;;;;16.55;8.88;;;;;;;18.53;99.46;101620.28;5079048;28;20088;-74
2022/10/29 14:58:11;;;;;;;21.40;9.48;;;;;;;18.42;100.00;101626.81;5080727;28;20047;-75
2022/10/29 15:00:38;;;;;;;22.05;10.25;;;;;;;18.45;99.32;101625.19;5081196;28;20086;-74
2022/10/29 15:03:05;;;;;;;21.73;9.70;;;;;;;18.52;98.97;101615.84;5062055;28;20494;-75
2022/10/29 15:05:34;;;;;;;20.35;9.05;;;;;;;18.49;99.37;101626.78;5073065;28;20028;-74
2022/10/29 15:08:09;;;;;;;25.50;9.15;;;;;;;18.45;99.64;101622.38;5078781;28;20028;-75
2022/10/29 15:10:45;;;;;;;22.33;9.30;;;;;;;18.41;100.00;101613.88;5076351;28;20491;-74
2022/10/29 15:13:31;;;;;;;22.52;9.55;;;;;;;18.33;100.00;101609.47;5077612;28;20550;-75
2022/10/29 15:16:08;;;;;;;21.02;9.65;;;;;;;18.29;100.00;101614.34;5074579;28;20486;-74
2022/10/29 15:18:36;;;;;;;21.80;9.98;;;;;;;18.29;100.00;101611.53;5048911;28;20020;-74
2022/10/29 15:21:03;;;;;;;22.42;10.10;;;;;;;18.27;100.00;101616.78;5077152;28;20098;-75
2022/10/29 15:23:42;;;;;;;23.00;10.73;;;;;;;18.26;100.00;101610.31;5077756;28;20032;-75
2022/10/29 15:26:13;;;;;;;19.52;9.85;;;;;;;18.23;100.00;101616.81;5057683;28;20103;-75
2022/10/29 15:28:41;;;;;;;20.20;9.43;;;;;;;18.23;100.00;101605.47;5070417;28;20111;-73
2022/10/29 15:31:16;;;;;;;29.23;12.50;;;;;;;18.22;100.00;101605.91;5080141;28;20039;-74
2022/10/29 15:33:41;;;;;;;18.60;10.13;;;;;;;18.15;100.00;101603.09;5054115;28;20321;-74
2022/10/29 15:36:07;;;;;;;20.40;11.02;;;;;;;18.15;100.00;101617.25;5074511;28;20028;-74
2022/10/29 15:38:33;;;;;;;24.90;10.52;;;;;;;18.15;100.00;101614.44;5073409;28;20411;-74
2022/10/29 15:41:07;;;;;;;22.45;10.05;;;;;;;18.10;100.00;101618.50;5061933;28;20070;-74
2022/10/29 15:43:34;;;;;;;19.92;9.95;;;;;;;18.06;100.00;101612.84;5078242;28;20024;-73
2022/10/29 15:46:01;;;;;;;24.63;10.73;;;;;;;17.98;100.00;101605.63;5078561;28;20467;-73
2022/10/29 15:48:34;;;;;;;21.23;9.98;;;;;;;17.99;100.00;101601.56;5077554;28;20115;-75
2022/10/29 15:50:59;;;;;;;;;;;;;;;17.98;100.00;101605.63;5076896;28;20032;-73
2022/10/29 15:53:24;;;;;;;21.58;10.40;;;;;;;17.87;100.00;101604.84;5083531;28;20311;-74
2022/10/29 15:55:51;;;;;;;21.38;10.27;;;;;;;17.86;100.00;101591.91;5079536;28;20031;-74
2022/10/29 15:58:22;;;;;;;23.60;10.52;;;;;;;17.83;100.00;101590.69;5059639;28;20032;-74
2022/10/29 16:00:47;;;;;;;22.90;11.45;;;;;;;17.84;100.00;101595.16;5077005;28;20020;-74
2022/10/29 16:03:16;;;;;;;25.00;12.18;;;;;;;17.87;100.00;101593.50;5071364;28;20038;-74
2022/10/29 16:05:43;;;;;;;23.20;10.60;;;;;;;17.85;100.00;101587.47;5051797;28;20540;-74
2022/10/29 16:08:39;;;;;;;25.60;11.38;;;;;;;17.83;100.00;101587.06;5077468;28;20028;-74
2022/10/29 16:11:07;;;;;;;26.77;10.85;;;;;;;17.82;100.00;101591.09;5050955;28;20036;-74
2022/10/29 16:13:33;;;;;;;26.05;10.90;;;;;;;17.79;100.00;101589.06;5076791;28;20043;-74
2022/10/29 16:15:58;;;;;;;27.67;11.88;;;;;;;17.75;100.00;101585.44;5055151;28;20024;-74
2022/10/29 16:18:24;;;;;;;20.80;10.50;;;;;;;17.65;100.00;101581.44;5081169;28;20429;-74
2022/10/29 16:20:53;;;;;;;25.08;12.55;;;;;;;17.66;100.00;101583.06;5065937;28;20487;-73
2022/10/29 16:23:18;;;;;;;24.77;11.90;;;;;;;17.62;100.00;101583.06;5060795;28;20098;-73
2022/10/29 16:25:43;;;;;;;27.70;12.10;;;;;;;17.58;100.00;101582.28;5071695;28;20649;-75
2022/10/29 16:28:09;;;;;;;20.17;11.70;;;;;;;17.57;100.00;101586.31;5057136;28;20264;-74
2022/10/29 16:30:36;;;;;;;23.52;11.82;;;;;;;17.50;100.00;101586.34;5077208;28;20036;-75
2022/10/29 16:33:02;;;;;;;28.13;12.73;;;;;;;17.50;100.00;101580.69;5057218;28;20097;-75
2022/10/29 16:35:28;;;;;;;30.73;11.43;;;;;;;17.49;100.00;101584.72;5078807;28;20467;-75